Time;durP1;ratioP1;P1;durP2;ratioP2;P2;SDS_P1;SDS_P2;PMS_P1;PMS_P2;Temp;Humidity;BMP_temperature;BMP_pressure;BME280_temperature;BME280_humidity;BME280_pressure;Samples;Min_cycle;Max_cycle;Signal;HPM_P1;HPM_P2
2023/05/12 14:39:41;;;;;;;12.35;4.10;;;18.00;95.50;;;;;;5131401;27;20389;-88
2023/05/12 14:42:07;;;;;;;10.07;3.78;;;17.90;96.30;;;;;;5056764;28;20092;-89
2023/05/12 14:44:33;;;;;;;10.82;2.83;;;17.90;98.80;;;;;;5035041;28;20033;-89
2023/05/12 14:46:58;;;;;;;5.65;1.77;;;18.10;99.70;;;;;;5051124;28;20498;-88
2023/05/12 14:49:24;;;;;;;9.05;2.90;;;18.00;99.90;;;;;;5031711;28;20033;-89
2023/05/12 14:51:50;;;;;;;13.30;5.07;;;17.70;99.90;;;;;;5050972;28;20025;-89
2023/05/12 14:54:16;;;;;;;15.70;8.40;;;17.70;99.90;;;;;;5033142;28;20478;-89
2023/05/12 14:56:42;;;;;;;17.02;9.20;;;17.70;99.90;;;;;;5034746;28;20039;-87
2023/05/12 14:59:09;;;;;;;10.73;6.68;;;17.90;99.90;;;;;;5030926;28;20399;-86
2023/05/12 15:01:35;;;;;;;9.18;3.85;;;17.80;99.90;;;;;;5031668;28;20061;-87
2023/05/12 15:04:01;;;;;;;9.55;3.78;;;17.80;99.90;;;;;;5047712;28;20470;-86
2023/05/12 15:06:27;;;;;;;6.60;2.88;;;17.80;99.90;;;;;;5034375;28;20036;-87
2023/05/12 15:08:53;;;;;;;7.00;2.58;;;17.80;99.90;;;;;;5034313;28;20033;-87
2023/05/12 15:11:20;;;;;;;10.30;3.00;;;17.70;99.90;;;;;;5034372;28;20513;-87
2023/05/12 15:13:46;;;;;;;7.90;4.15;;;17.80;99.90;;;;;;5034314;28;20106;-86
2023/05/12 15:16:12;;;;;;;12.52;3.58;;;17.90;99.90;;;;;;5034589;28;20110;-87
2023/05/12 15:18:38;;;;;;;6.57;2.83;;;17.80;99.90;;;;;;5043310;28;20091;-86
2023/05/12 15:21:04;;;;;;;7.38;3.60;;;17.70;99.90;;;;;;5040058;28;20367;-87
2023/05/12 15:23:30;;;;;;;9.75;3.05;;;17.70;99.90;;;;;;5038372;28;20379;-86
2023/05/12 15:25:56;;;;;;;11.02;3.28;;;17.70;99.90;;;;;;5025482;28;20023;-87
2023/05/12 15:28:22;;;;;;;5.20;3.10;;;17.70;99.90;;;;;;5033928;28;20025;-86
2023/05/12 15:30:55;;;;;;;12.73;3.80;;;17.60;99.90;;;;;;5049395;28;20083;-85
2023/05/12 15:33:21;;;;;;;7.55;2.90;;;17.60;99.90;;;;;;5050247;28;20063;-87
2023/05/12 15:35:47;;;;;;;5.60;2.63;;;17.70;99.90;;;;;;5033249;28;20029;-86
2023/05/12 15:38:13;;;;;;;9.02;3.13;;;17.50;99.90;;;;;;5032943;28;20053;-87
2023/05/12 15:40:40;;;;;;;11.88;3.90;;;17.40;99.90;;;;;;5041483;28;20034;-87
2023/05/12 15:43:06;;;;;;;14.48;4.63;;;17.30;99.90;;;;;;5026333;28;20032;-86
2023/05/12 15:45:36;;;;;;;12.68;5.30;;;17.10;99.90;;;;;;5026825;28;20026;-87
2023/05/12 15:48:04;;;;;;;13.30;5.30;;;16.50;99.90;;;;;;5031488;28;20392;-87
2023/05/12 15:50:31;;;;;;;10.00;4.28;;;16.40;99.90;;;;;;5022987;28;20138;-86
2023/05/12 15:52:58;;;;;;;14.88;4.40;;;16.30;99.90;;;;;;5020398;28;20029;-86
2023/05/12 15:55:24;;;;;;;11.70;4.10;;;16.20;99.90;;;;;;5036935;28;20482;-86
2023/05/12 15:57:52;;;;;;;9.65;3.42;;;16.00;99.90;;;;;;5020157;28;20034;-86
2023/05/12 16:00:21;;;;;;;8.73;3.97;;;15.80;99.90;;;;;;5036673;28;20026;-86
2023/05/12 16:02:54;;;;;;;9.52;4.07;;;15.70;99.90;;;;;;5014829;28;20026;-87
2023/05/12 16:05:22;;;;;;;11.02;4.72;;;15.60;99.90;;;;;;5016141;28;20026;-88
2023/05/12 16:07:48;;;;;;;7.90;4.03;;;15.50;99.90;;;;;;5018933;28;20025;-87
2023/05/12 16:10:14;;;;;;;11.48;4.10;;;15.50;99.90;;;;;;5017644;28;20439;-86
2023/05/12 16:12:40;;;;;;;8.45;4.25;;;15.50;99.90;;;;;;5027690;28;20105;-86
2023/05/12 16:15:07;;;;;;;9.68;4.30;;;15.40;99.90;;;;;;5034669;28;20057;-87
2023/05/12 16:17:33;;;;;;;11.48;4.55;;;15.40;99.90;;;;;;5020320;28;20095;-86
2023/05/12 16:20:00;;;;;;;5.18;2.88;;;15.30;99.90;;;;;;5036373;28;20033;-86
2023/05/12 16:22:26;;;;;;;9.57;3.90;;;15.30;99.90;;;;;;5036126;28;20386;-84
2023/05/12 16:24:54;;;;;;;7.78;3.42;;;15.30;99.90;;;;;;5019300;28;20021;-86
2023/05/12 16:27:20;;;;;;;7.80;3.40;;;15.20;99.90;;;;;;5035587;28;20022;-86
2023/05/12 16:29:48;;;;;;;7.70;3.80;;;15.30;99.90;;;;;;5035987;28;20028;-86
2023/05/12 16:32:15;;;;;;;10.57;3.97;;;15.20;99.90;;;;;;5021377;28;20438;-87
2023/05/12 16:34:41;;;;;;;5.93;3.33;;;15.30;99.90;;;;;;4999871;28;20040;-85
2023/05/12 16:37:11;;;;;;;6.50;3.40;;;15.10;99.90;;;;;;5021245;28;20029;-85
2023/05/12 16:39:36;;;;;;;7.45;4.13;;;15.10;99.90;;;;;;5035611;28;20132;-86
2023/05/12 16:42:03;;;;;;;4.50;3.17;;;15.20;99.90;;;;;;5015732;28;20061;-86
2023/05/12 16:44:29;;;;;;;6.97;2.90;;;15.30;99.90;;;;;;5016022;28;20061;-86
2023/05/12 16:46:55;;;;;;;7.50;3.67;;;15.30;99.90;;;;;;5017239;28;20053;-86
2023/05/12 16:49:21;;;;;;;4.53;3.08;;;15.20;99.90;;;;;;4999555;28;20072;-86
2023/05/12 16:51:47;;;;;;;10.75;4.93;;;15.20;99.90;;;;;;5024253;28;20052;-86
2023/05/12 16:54:13;;;;;;;8.45;5.35;;;15.10;99.90;;;;;;5034991;28;20026;-86
2023/05/12 16:56:39;;;;;;;12.88;4.63;;;15.00;99.90;;;;;;5030286;28;20037;-86
2023/05/12 16:59:05;;;;;;;12.32;5.72;;;15.10;99.90;;;;;;5036174;28;20026;-86
2023/05/12 17:01:32;;;;;;;10.68;5.60;;;15.00;99.90;;;;;;5014514;28;20056;-88
2023/05/12 17:03:58;;;;;;;9.75;5.22;;;15.00;99.90;;;;;;5010647;28;20103;-86
2023/05/12 17:06:24;;;;;;;9.38;4.43;;;14.90;99.90;;;;;;5024709;28;20030;-86
2023/05/12 17:08:50;;;;;;;8.75;4.65;;;14.80;99.90;;;;;;5018392;28;20029;-86
2023/05/12 17:11:16;;;;;;;13.18;4.97;;;14.90;99.90;;;;;;5015749;28;20509;-85
2023/05/12 17:13:42;;;;;;;7.95;3.97;;;14.90;99.90;;;;;;4999200;28;20032;-86
2023/05/12 17:16:08;;;;;;;8.32;3.70;;;14.80;99.90;;;;;;5001146;28;20087;-86
2023/05/12 17:18:34;;;;;;;11.20;4.35;;;14.70;99.90;;;;;;5018543;28;20033;-86
2023/05/12 17:21:00;;;;;;;10.60;5.35;;;14.70;99.90;;;;;;5034135;28;20079;-87
2023/05/12 17:23:27;;;;;;;10.27;6.45;;;14.60;99.90;;;;;;5018087;28;20060;-87
2023/05/12 17:25:53;;;;;;;10.23;5.10;;;14.60;99.90;;;;;;5018413;28;20021;-87
2023/05/12 17:28:19;;;;;;;13.65;8.00;;;14.60;99.90;;;;;;5018233;28;20066;-87
2023/05/12 17:30:46;;;;;;;11.95;6.30;;;14.50;99.90;;;;;;5034871;28;20095;-86
2023/05/12 17:33:14;;;;;;;12.27;6.72;;;14.50;99.90;;;;;;5034897;28;20030;-86
2023/05/12 17:35:40;;;;;;;17.63;7.72;;;14.60;99.90;;;;;;5018380;28;20033;-86
2023/05/12 17:38:06;;;;;;;17.48;10.13;;;14.50;99.90;;;;;;5034645;28;20538;-87
2023/05/12 17:40:32;;;;;;;25.55;13.75;;;14.50;99.90;;;;;;5034663;28;20063;-86
2023/05/12 17:42:58;;;;;;;59.60;30.17;;;14.40;99.90;;;;;;5034792;28;20025;-86
2023/05/12 17:45:24;;;;;;;72.18;35.80;;;14.40;99.90;;;;;;5034412;28;20026;-86
2023/05/12 17:47:50;;;;;;;77.97;38.25;;;14.30;99.90;;;;;;5034603;28;20120;-87
2023/05/12 17:50:17;;;;;;;76.78;40.55;;;14.30;99.90;;;;;;5034523;28;20136;-86
2023/05/12 17:52:43;;;;;;;63.95;34.88;;;14.20;99.90;;;;;;5034420;28;20037;-87
2023/05/12 17:55:09;;;;;;;96.82;52.50;;;14.20;99.90;;;;;;5034497;28;20033;-86
2023/05/12 17:57:35;;;;;;;88.35;45.35;;;14.20;99.90;;;;;;5034225;28;20044;-86
2023/05/12 18:00:05;;;;;;;86.93;46.10;;;14.10;99.90;;;;;;5034350;28;20038;-87
2023/05/12 18:02:40;;;;;;;103.53;52.33;;;14.10;99.90;;;;;;5050080;28;20033;-86
2023/05/12 18:05:06;;;;;;;111.18;48.00;;;14.00;99.90;;;;;;5034341;28;20030;-87
2023/05/12 18:07:33;;;;;;;145.65;60.67;;;13.90;99.90;;;;;;5034337;28;20025;-87
2023/05/12 18:09:59;;;;;;;113.18;48.05;;;13.80;99.90;;;;;;5050908;28;20025;-86
2023/05/12 18:12:25;;;;;;;112.80;47.28;;;13.70;99.90;;;;;;5034220;28;20029;-87
2023/05/12 18:14:51;;;;;;;103.15;42.67;;;13.70;99.90;;;;;;5050825;28;20065;-86
2023/05/12 18:17:18;;;;;;;98.82;38.88;;;13.60;99.90;;;;;;5034078;28;20052;-86
2023/05/12 18:19:44;;;;;;;89.05;39.42;;;13.50;99.90;;;;;;5034102;28;20355;-87
2023/05/12 18:22:10;;;;;;;86.20;37.13;;;13.50;99.90;;;;;;5050678;28;20026;-87
2023/05/12 18:24:36;;;;;;;88.13;36.03;;;13.50;99.90;;;;;;5034390;28;20192;-86
2023/05/12 18:27:03;;;;;;;102.80;45.03;;;13.40;99.90;;;;;;5033861;28;20033;-86
2023/05/12 18:29:29;;;;;;;84.35;35.30;;;13.40;99.90;;;;;;5034095;28;20033;-86
2023/05/12 18:31:55;;;;;;;78.88;34.35;;;13.30;99.90;;;;;;5017593;28;20034;-86
2023/05/12 18:34:21;;;;;;;88.95;37.47;;;13.30;99.90;;;;;;5017409;28;20550;-86
2023/05/12 18:36:47;;;;;;;107.18;48.40;;;13.30;99.90;;;;;;5017417;28;20068;-86
2023/05/12 18:39:13;;;;;;;122.47;54.20;;;13.30;99.90;;;;;;5017166;28;20197;-86
2023/05/12 18:41:39;;;;;;;120.78;56.45;;;13.30;99.90;;;;;;5017338;28;20029;-85
2023/05/12 18:44:07;;;;;;;125.63;54.55;;;13.30;99.90;;;;;;5034160;28;20100;-86
2023/05/12 18:46:33;;;;;;;100.07;44.42;;;13.30;99.90;;;;;;5034114;28;20017;-86
2023/05/12 18:48:59;;;;;;;132.20;58.38;;;13.40;99.90;;;;;;5033785;28;20025;-86
2023/05/12 18:51:26;;;;;;;102.13;45.60;;;13.30;99.90;;;;;;5050468;28;20034;-86
2023/05/12 18:53:52;;;;;;;117.05;50.35;;;13.20;99.90;;;;;;5033746;28;20510;-86
2023/05/12 18:56:18;;;;;;;93.28;37.53;;;13.30;99.90;;;;;;5033687;28;20037;-86
2023/05/12 18:58:44;;;;;;;75.38;32.67;;;13.30;99.90;;;;;;5033690;28;20029;-86
2023/05/12 19:01:10;;;;;;;96.78;38.17;;;13.30;99.90;;;;;;5033711;28;20034;-86
2023/05/12 19:03:36;;;;;;;92.63;37.65;;;13.30;99.90;;;;;;5033678;28;20474;-86
2023/05/12 19:06:02;;;;;;;105.53;42.90;;;13.30;99.90;;;;;;5033601;28;20390;-87
2023/05/12 19:08:28;;;;;;;116.25;50.47;;;13.30;99.90;;;;;;5033484;28;20037;-86
2023/05/12 19:10:54;;;;;;;149.52;67.68;;;13.30;99.90;;;;;;5033574;28;20092;-86
2023/05/12 19:13:20;;;;;;;141.00;56.92;;;13.30;99.90;;;;;;5033605;28;20034;-86
2023/05/12 19:15:46;;;;;;;134.00;55.65;;;13.30;99.90;;;;;;5033464;28;20442;-86
2023/05/12 19:18:12;;;;;;;160.85;63.42;;;13.30;99.90;;;;;;5033337;28;20033;-86
2023/05/12 19:20:38;;;;;;;133.15;56.33;;;13.30;99.90;;;;;;5033433;28;20033;-86
2023/05/12 19:23:04;;;;;;;134.73;63.38;;;13.40;99.90;;;;;;5050115;28;20025;-86
2023/05/12 19:25:30;;;;;;;132.10;63.88;;;13.40;99.90;;;;;;5035597;28;20025;-86
2023/05/12 19:27:56;;;;;;;133.77;67.50;;;13.30;99.90;;;;;;5020654;28;20131;-86
2023/05/12 19:30:24;;;;;;;129.63;66.28;;;13.20;99.90;;;;;;5037178;28;20116;-86
2023/05/12 19:32:50;;;;;;;86.38;37.15;;;13.20;99.90;;;;;;5020742;28;20033;-85
2023/05/12 19:35:16;;;;;;;100.40;39.88;;;13.30;99.90;;;;;;5037103;28;20486;-86
2023/05/12 19:37:42;;;;;;;91.38;40.88;;;13.20;99.90;;;;;;5036794;28;20049;-87
2023/05/12 19:40:08;;;;;;;111.97;50.08;;;13.20;99.90;;;;;;5020613;28;20036;-86
2023/05/12 19:42:36;;;;;;;124.88;59.78;;;13.10;99.90;;;;;;5036894;28;20037;-86
2023/05/12 19:45:03;;;;;;;102.30;46.47;;;13.10;99.90;;;;;;5036989;28;20040;-86
2023/05/12 19:47:30;;;;;;;97.88;46.83;;;13.00;99.90;;;;;;5036805;28;20545;-86
2023/05/12 19:49:56;;;;;;;82.65;38.15;;;13.00;99.90;;;;;;5036768;28;20541;-87
2023/05/12 19:52:25;;;;;;;83.28;36.88;;;12.90;99.90;;;;;;5036660;28;20157;-86
2023/05/12 19:54:52;;;;;;;78.25;36.08;;;12.90;99.90;;;;;;5036789;28;20112;-86
2023/05/12 19:57:18;;;;;;;71.07;32.30;;;12.80;99.90;;;;;;5036624;28;20076;-87
2023/05/12 19:59:44;;;;;;;92.95;37.72;;;12.80;99.90;;;;;;5053268;28;20040;-87
2023/05/12 20:02:13;;;;;;;83.45;33.28;;;12.80;99.90;;;;;;5036576;28;20029;-86
2023/05/12 20:04:39;;;;;;;86.15;35.05;;;12.80;99.90;;;;;;5036562;28;20078;-87
2023/05/12 20:07:05;;;;;;;79.95;34.95;;;12.80;99.90;;;;;;5036519;28;20029;-86
2023/05/12 20:09:31;;;;;;;77.30;32.80;;;12.80;99.90;;;;;;5036345;28;20033;-86
2023/05/12 20:11:58;;;;;;;90.80;37.47;;;12.90;99.90;;;;;;5036496;28;20030;-86
2023/05/12 20:14:24;;;;;;;84.22;36.42;;;12.80;99.90;;;;;;5053142;28;20030;-87
2023/05/12 20:16:50;;;;;;;73.35;31.42;;;12.70;99.90;;;;;;5036410;28;20556;-87
2023/05/12 20:19:16;;;;;;;77.38;33.08;;;12.70;99.90;;;;;;5053089;28;20026;-87
2023/05/12 20:21:42;;;;;;;80.38;34.60;;;12.70;99.90;;;;;;5036232;28;20032;-86
2023/05/12 20:24:08;;;;;;;84.22;36.33;;;12.80;99.90;;;;;;5036173;28;20032;-86
2023/05/12 20:26:34;;;;;;;89.68;38.55;;;12.80;99.90;;;;;;5036074;28;20033;-86
2023/05/12 20:29:00;;;;;;;85.32;37.22;;;12.70;99.90;;;;;;5036048;28;20470;-86
2023/05/12 20:31:27;;;;;;;83.50;36.95;;;12.70;99.90;;;;;;5019504;28;20029;-86
2023/05/12 20:33:56;;;;;;;79.80;38.15;;;12.70;99.90;;;;;;5019503;28;20084;-86
2023/05/12 20:36:22;;;;;;;78.03;36.35;;;12.70;99.90;;;;;;5019406;28;20044;-86
2023/05/12 20:38:48;;;;;;;79.05;35.75;;;12.60;99.90;;;;;;5019239;28;20132;-86
2023/05/12 20:41:14;;;;;;;84.13;37.55;;;12.60;99.90;;;;;;5019398;28;20034;-87
2023/05/12 20:43:40;;;;;;;86.75;36.88;;;12.50;99.90;;;;;;5019273;28;20083;-87
2023/05/12 20:46:07;;;;;;;79.82;35.92;;;12.50;99.90;;;;;;5032264;28;20387;-87
2023/05/12 20:48:33;;;;;;;79.57;36.20;;;12.50;99.90;;;;;;4999575;28;20429;-87
2023/05/12 20:51:09;;;;;;;85.47;37.70;;;12.50;99.90;;;;;;4999590;28;20037;-86
2023/05/12 20:53:35;;;;;;;86.10;38.25;;;12.50;99.90;;;;;;5015901;28;20125;-86
2023/05/12 20:56:01;;;;;;;81.38;36.13;;;12.60;99.90;;;;;;5015777;28;20069;-86
2023/05/12 20:58:27;;;;;;;89.10;42.47;;;12.50;99.90;;;;;;5015648;28;20026;-86
2023/05/12 21:00:53;;;;;;;89.72;42.25;;;12.50;99.90;;;;;;5015789;28;20037;-86
2023/05/12 21:03:19;;;;;;;87.13;41.28;;;12.50;99.90;;;;;;5016950;28;20426;-87
2023/05/12 21:05:46;;;;;;;92.78;40.75;;;12.50;99.90;;;;;;4999598;28;20037;-86
2023/05/12 21:08:13;;;;;;;102.22;44.33;;;12.50;99.90;;;;;;4999190;28;20483;-87
2023/05/12 21:10:39;;;;;;;97.50;42.58;;;12.50;99.90;;;;;;5015531;28;20551;-87
2023/05/12 21:13:05;;;;;;;87.63;42.63;;;12.60;99.90;;;;;;4999213;28;20509;-87
2023/05/12 21:15:31;;;;;;;96.30;44.53;;;12.50;99.90;;;;;;5015354;28;20434;-86
2023/05/12 21:17:57;;;;;;;93.68;43.38;;;12.40;99.90;;;;;;5015243;28;20053;-87
2023/05/12 21:20:23;;;;;;;106.43;46.35;;;12.40;99.90;;;;;;4999428;28;20411;-87
2023/05/12 21:22:49;;;;;;;86.63;39.97;;;12.40;99.90;;;;;;4999249;28;20033;-87
2023/05/12 21:25:15;;;;;;;93.55;39.28;;;12.40;99.90;;;;;;5015330;28;20036;-86
2023/05/12 21:27:41;;;;;;;108.43;45.78;;;12.50;99.90;;;;;;5015399;28;20034;-88
2023/05/12 21:30:09;;;;;;;129.80;55.97;;;12.50;99.90;;;;;;5015241;28;20030;-87
2023/05/12 21:32:36;;;;;;;135.23;54.30;;;12.50;99.90;;;;;;5015281;28;20022;-86
2023/05/12 21:35:02;;;;;;;144.65;61.63;;;12.40;99.90;;;;;;5031515;28;20034;-86
2023/05/12 21:37:28;;;;;;;155.20;66.60;;;12.40;99.90;;;;;;5031306;28;20104;-86
2023/05/12 21:39:54;;;;;;;120.35;55.53;;;12.40;99.90;;;;;;5031620;28;20435;-87
2023/05/12 21:42:21;;;;;;;114.30;53.53;;;12.40;99.90;;;;;;5015024;28;20030;-86
2023/05/12 21:44:50;;;;;;;116.00;51.75;;;12.40;99.90;;;;;;5020412;28;20034;-87
2023/05/12 21:47:16;;;;;;;122.47;53.25;;;12.40;99.90;;;;;;5014395;28;20113;-86
2023/05/12 21:49:42;;;;;;;109.07;50.40;;;12.50;99.90;;;;;;5015087;28;20052;-86
2023/05/12 21:52:08;;;;;;;103.60;47.88;;;12.50;99.90;;;;;;5014949;28;20056;-86
2023/05/12 21:54:34;;;;;;;102.38;48.67;;;12.50;99.90;;;;;;5014689;28;20022;-86
2023/05/12 21:57:01;;;;;;;97.68;47.33;;;12.50;99.90;;;;;;4998246;28;20495;-86
2023/05/12 21:59:28;;;;;;;88.00;45.30;;;12.50;99.90;;;;;;5014547;28;20065;-86
2023/05/12 22:01:54;;;;;;;88.32;43.25;;;12.50;99.90;;;;;;5014779;28;20022;-86
2023/05/12 22:04:20;;;;;;;86.82;42.92;;;12.60;99.90;;;;;;4998306;28;20117;-87
2023/05/12 22:06:46;;;;;;;76.90;41.20;;;12.50;99.90;;;;;;5014563;28;20034;-87
2023/05/12 22:09:13;;;;;;;86.82;42.97;;;12.50;99.90;;;;;;5014675;28;20037;-88
2023/05/12 22:11:39;;;;;;;77.90;42.40;;;12.50;99.90;;;;;;5014673;28;20483;-86
2023/05/12 22:14:05;;;;;;;83.03;44.30;;;12.60;99.90;;;;;;5014765;28;20099;-86
2023/05/12 22:16:31;;;;;;;78.25;42.10;;;12.60;99.90;;;;;;5014383;28;20399;-86
2023/05/12 22:18:57;;;;;;;70.00;37.25;;;12.50;99.90;;;;;;4997993;28;20038;-86
2023/05/12 22:21:23;;;;;;;83.18;44.95;;;12.40;99.90;;;;;;4998025;28;20022;-86
2023/05/12 22:23:49;;;;;;;76.18;41.53;;;12.50;99.90;;;;;;5014283;28;20025;-86
2023/05/12 22:26:15;;;;;;;76.88;39.85;;;12.60;99.90;;;;;;5014297;28;20390;-86
2023/05/12 22:28:41;;;;;;;77.45;38.00;;;12.60;99.90;;;;;;5014220;28;20044;-86
2023/05/12 22:31:07;;;;;;;76.32;39.25;;;12.40;99.90;;;;;;5014317;28;20427;-87
2023/05/12 22:33:34;;;;;;;73.68;41.20;;;12.40;99.90;;;;;;5014177;28;20556;-86
2023/05/12 22:36:00;;;;;;;65.65;36.55;;;12.40;99.90;;;;;;5014186;28;20033;-86
2023/05/12 22:38:27;;;;;;;64.55;34.47;;;12.30;99.90;;;;;;5014100;28;20042;-86
2023/05/12 22:40:53;;;;;;;67.97;33.78;;;12.30;99.90;;;;;;4997819;28;20535;-86
2023/05/12 22:43:19;;;;;;;74.70;38.22;;;12.30;99.90;;;;;;4998016;28;20038;-87
2023/05/12 22:45:50;;;;;;;73.45;38.50;;;12.20;99.90;;;;;;5030544;28;20033;-86
2023/05/12 22:48:18;;;;;;;68.65;35.65;;;12.10;99.90;;;;;;5033906;28;20527;-86
2023/05/12 22:50:44;;;;;;;76.35;37.88;;;12.10;99.90;;;;;;5033787;28;20029;-86
2023/05/12 22:53:10;;;;;;;72.90;36.65;;;12.10;99.90;;;;;;5033766;28;20115;-87
2023/05/12 22:55:36;;;;;;;73.72;35.22;;;12.20;99.90;;;;;;5033741;28;20430;-87
2023/05/12 22:58:02;;;;;;;76.05;36.65;;;12.30;99.90;;;;;;5033868;28;20030;-86
2023/05/12 23:00:28;;;;;;;69.88;35.08;;;12.40;99.90;;;;;;5035983;28;20025;-87
2023/05/12 23:02:54;;;;;;;66.70;32.95;;;12.30;99.90;;;;;;5037760;28;20032;-87
2023/05/12 23:05:20;;;;;;;53.78;26.77;;;12.40;99.90;;;;;;5054399;28;20083;-87
2023/05/12 23:07:46;;;;;;;53.42;26.33;;;12.40;99.90;;;;;;5037639;28;20025;-87
2023/05/12 23:10:12;;;;;;;54.10;25.15;;;12.30;99.90;;;;;;5037551;28;20033;-87
2023/05/12 23:12:38;;;;;;;54.85;25.42;;;12.10;99.90;;;;;;5037599;28;20467;-87
2023/05/12 23:15:06;;;;;;;53.05;26.23;;;12.10;99.90;;;;;;5037390;28;20033;-86
2023/05/12 23:17:32;;;;;;;53.97;27.20;;;12.00;99.90;;;;;;5037354;28;20036;-86
2023/05/12 23:19:58;;;;;;;59.10;27.25;;;11.90;99.90;;;;;;5054076;28;20033;-86
2023/05/12 23:22:24;;;;;;;58.88;28.88;;;11.80;99.90;;;;;;5037291;28;20110;-87
2023/05/12 23:24:53;;;;;;;68.63;31.33;;;11.80;99.90;;;;;;5037399;28;20022;-86
2023/05/12 23:27:20;;;;;;;59.55;28.92;;;11.60;99.90;;;;;;5037201;28;20463;-87
2023/05/12 23:29:46;;;;;;;67.10;29.75;;;11.60;99.90;;;;;;5020784;28;20514;-87
2023/05/12 23:32:12;;;;;;;56.85;27.38;;;11.50;99.90;;;;;;5020695;28;20048;-86
2023/05/12 23:34:39;;;;;;;57.85;28.75;;;11.50;99.90;;;;;;5020636;28;20116;-86
2023/05/12 23:37:06;;;;;;;63.65;30.27;;;11.50;99.90;;;;;;5020526;28;20030;-86
2023/05/12 23:39:32;;;;;;;63.90;32.38;;;11.40;99.90;;;;;;5020323;28;20128;-86
2023/05/12 23:41:58;;;;;;;71.65;32.28;;;11.40;99.90;;;;;;5037000;28;20430;-87
2023/05/12 23:44:24;;;;;;;59.88;30.20;;;11.30;99.90;;;;;;5019482;28;20026;-86
2023/05/12 23:46:50;;;;;;;62.75;29.58;;;11.30;99.90;;;;;;5017139;28;20033;-87
2023/05/12 23:49:16;;;;;;;67.50;29.35;;;11.30;99.90;;;;;;5017127;28;20104;-87
2023/05/12 23:51:42;;;;;;;57.70;28.70;;;11.40;99.90;;;;;;5000679;28;20034;-87
2023/05/12 23:54:08;;;;;;;59.33;27.17;;;11.40;99.90;;;;;;5000958;28;20419;-87
2023/05/12 23:56:34;;;;;;;55.97;27.50;;;11.30;99.90;;;;;;5016863;28;20030;-87
2023/05/12 23:59:01;;;;;;;54.03;28.85;;;11.30;99.90;;;;;;5016907;28;20391;-87
